»·PEaware :: WAT380 KSAN-KMRY

WAT380 :: KSAN-KMRY

FLIGHT INFORMATION

Flight Status: Arrived
Operator:
Walker Air Transport
More flights by this operator :: More flights under this callsign
Pilot: Spencer M. (27733)
Aircraft: ECLIPSE 500
(EA50)
More flights by this aircraft type
Origin: KSAN San Diego Intl-Lindbergh
United States
Destination: KMRY Monterey Peninsula
United States
More flights between these airports :: More routes between these airports
Route: +CWARD2 LAX V299 VTU T257 RZS V25 SNS
File this flight plan on PilotEdge
Remarks:
Altitude:
(Current/Filed)
26,000ft
Speed:
(Current/Filed)
340kts
Departed: 20-Oct-20 07:59 PM
Arrived: 20-Oct-20 09:26 PM
Distance/Time
Traveled:
326nm/1:26
Distance/Time
To Go:
Arrived

Flight Plot

Page will automatically refresh every two minutes.

Flight plan parsing failed; only flown route is shown


Map Options




Map Legend


Flown Route
Filed Route
Departure Airport
Arrival Airport
Navaid (VOR, NDB)
Fix

Horizontal Profiles

Position Reports

Time Latitude Longitude Heading Altitude Ground
Speed
20-Oct-20 19:27 32.733583 -117.178852 17 20ft 0kts
20-Oct-20 19:28 32.733583 -117.178852 17 20ft 0kts
20-Oct-20 19:29 32.733583 -117.178852 17 20ft 0kts
20-Oct-20 19:30 32.733583 -117.178852 17 20ft 0kts
20-Oct-20 19:31 32.733583 -117.178852 17 20ft 0kts
20-Oct-20 19:32 32.733583 -117.178852 17 20ft 0kts
20-Oct-20 19:33 32.733583 -117.178852 17 20ft 0kts
20-Oct-20 19:34 32.733583 -117.178852 17 20ft 0kts
20-Oct-20 19:35 32.733583 -117.178852 17 20ft 0kts
20-Oct-20 19:36 32.733583 -117.178852 17 20ft 0kts
20-Oct-20 19:37 32.733583 -117.178852 17 20ft 0kts
20-Oct-20 19:38 32.733583 -117.178852 17 20ft 0kts
20-Oct-20 19:39 32.733583 -117.178852 17 20ft 0kts
20-Oct-20 19:40 32.733583 -117.178852 17 20ft 0kts
20-Oct-20 19:41 32.733583 -117.178852 17 20ft 0kts
20-Oct-20 19:42 32.733583 -117.178852 17 20ft 0kts
20-Oct-20 19:43 32.733583 -117.178852 17 20ft 0kts
20-Oct-20 19:44 32.733583 -117.178852 17 20ft 0kts
20-Oct-20 19:45 32.733583 -117.178852 17 20ft 0kts
20-Oct-20 19:46 32.733583 -117.178852 17 20ft 0kts
20-Oct-20 19:47 32.733583 -117.178852 17 20ft 0kts
20-Oct-20 19:48 32.733583 -117.178852 17 20ft 0kts
20-Oct-20 19:49 32.733583 -117.178852 17 20ft 0kts
20-Oct-20 19:50 32.733583 -117.178852 17 20ft 0kts
20-Oct-20 19:51 32.733632 -117.178843 3 20ft 2kts
20-Oct-20 19:52 32.733520 -117.179320 147 20ft 4kts
20-Oct-20 19:53 32.732183 -117.176381 145 20ft 7kts
20-Oct-20 19:54 32.731123 -117.175678 140 20ft 6kts
20-Oct-20 19:55 32.730966 -117.175537 146 20ft 0kts
20-Oct-20 19:56 32.730966 -117.175537 146 20ft 0kts
20-Oct-20 19:57 32.730319 -117.176299 284 20ft 24kts
20-Oct-20 19:59 32.738804 -117.211483 292 870ft 154kts
20-Oct-20 20:00 32.767710 -117.260908 303 2324ft 214kts
20-Oct-20 20:01 32.804574 -117.327808 308 4078ft 262kts
20-Oct-20 20:02 32.850686 -117.398118 308 6082ft 276kts
20-Oct-20 20:03 32.897980 -117.471274 308 8086ft 280kts
20-Oct-20 20:04 32.945118 -117.544560 308 9989ft 281kts
20-Oct-20 20:05 32.992815 -117.618895 308 11683ft 284kts
20-Oct-20 20:06 33.040769 -117.693779 307 13235ft 287kts
20-Oct-20 20:07 33.095649 -117.762062 319 14731ft 286kts
20-Oct-20 20:08 33.155702 -117.823072 318 16235ft 282kts
20-Oct-20 20:09 33.221249 -117.868996 346 17734ft 280kts
20-Oct-20 20:10 33.296332 -117.887473 345 19237ft 272kts
20-Oct-20 20:11 33.369100 -117.905554 345 20736ft 263kts
20-Oct-20 20:12 33.427540 -117.950361 319 22238ft 247kts
20-Oct-20 20:13 33.469717 -118.011683 304 23637ft 235kts
20-Oct-20 20:14 33.507835 -118.073184 305 25030ft 224kts
20-Oct-20 20:14 33.538278 -118.121787 305 25962ft 223kts
20-Oct-20 20:16 33.586270 -118.198268 305 25994ft 267kts
20-Oct-20 20:16 33.624985 -118.259952 305 26001ft 288kts
20-Oct-20 20:18 33.683291 -118.353017 305 25995ft 308kts
20-Oct-20 20:18 33.726946 -118.422830 305 25981ft 317kts
20-Oct-20 20:19 33.780362 -118.508445 305 25969ft 323kts
20-Oct-20 20:20 33.834397 -118.595261 305 26004ft 326kts
20-Oct-20 20:21 33.888851 -118.682963 305 26010ft 328kts
20-Oct-20 20:22 33.943614 -118.771363 305 26010ft 330kts
20-Oct-20 20:23 33.998434 -118.860152 305 26023ft 332kts
20-Oct-20 20:24 34.053910 -118.950117 305 26000ft 336kts
20-Oct-20 20:25 34.109704 -119.040853 306 26000ft 338kts
20-Oct-20 20:26 34.162443 -119.135460 303 25997ft 340kts
20-Oct-20 20:27 34.214835 -119.230680 303 25993ft 342kts
20-Oct-20 20:28 34.267459 -119.326580 303 25990ft 342kts
20-Oct-20 20:29 34.319683 -119.422005 303 25987ft 340kts
20-Oct-20 20:30 34.371563 -119.517042 303 26010ft 339kts
20-Oct-20 20:31 34.423489 -119.612434 303 26007ft 338kts
20-Oct-20 20:32 34.475147 -119.707582 302 26010ft 338kts
20-Oct-20 20:33 34.535460 -119.790115 327 26012ft 327kts
20-Oct-20 20:34 34.611666 -119.845123 327 26020ft 313kts
20-Oct-20 20:35 34.685450 -119.898705 327 26028ft 306kts
20-Oct-20 20:36 34.757760 -119.951359 327 26001ft 302kts
20-Oct-20 20:37 34.830151 -120.004201 327 26009ft 311kts
20-Oct-20 20:38 34.906175 -120.059855 327 26011ft 326kts
20-Oct-20 20:39 34.984977 -120.117681 329 26011ft 335kts
20-Oct-20 20:40 35.065308 -120.176644 330 26014ft 341kts
20-Oct-20 20:41 35.147214 -120.236906 330 26018ft 346kts
20-Oct-20 20:42 35.229796 -120.297858 330 25998ft 349kts
20-Oct-20 20:43 35.312919 -120.359365 330 25993ft 351kts
20-Oct-20 20:44 35.396327 -120.421235 330 25988ft 351kts
20-Oct-20 20:45 35.479633 -120.483180 330 26006ft 351kts
20-Oct-20 20:46 35.563235 -120.545498 330 26000ft 352kts
20-Oct-20 20:47 35.646696 -120.607866 330 25999ft 352kts
20-Oct-20 20:48 35.725660 -120.678783 322 25839ft 347kts
20-Oct-20 20:49 35.794068 -120.745182 323 24810ft 288kts
20-Oct-20 20:50 35.855198 -120.804646 323 23634ft 276kts
20-Oct-20 20:51 35.914656 -120.862617 322 22126ft 271kts
20-Oct-20 20:52 35.971335 -120.917961 322 20610ft 251kts
20-Oct-20 20:53 36.024569 -120.969940 322 19100ft 239kts
20-Oct-20 20:54 36.075535 -121.019553 322 17586ft 226kts
20-Oct-20 20:55 36.122208 -121.065030 323 16078ft 208kts
20-Oct-20 20:56 36.166724 -121.108452 323 14577ft 199kts
20-Oct-20 20:57 36.209299 -121.150030 323 12908ft 198kts
20-Oct-20 20:58 36.252393 -121.191969 323 10907ft 194kts
20-Oct-20 20:59 36.292737 -121.230979 323 10016ft 178kts
20-Oct-20 21:00 36.334188 -121.270966 323 9992ft 200kts
20-Oct-20 21:01 36.367246 -121.327160 293 9990ft 209kts
20-Oct-20 21:02 36.388726 -121.395485 294 10005ft 216kts
20-Oct-20 21:03 36.411680 -121.466311 294 10010ft 225kts
20-Oct-20 21:04 36.434210 -121.539612 284 9963ft 232kts
20-Oct-20 21:05 36.446530 -121.610556 284 9137ft 224kts
20-Oct-20 21:06 36.461646 -121.684934 283 8098ft 219kts
20-Oct-20 21:07 36.475768 -121.754351 284 6990ft 195kts
20-Oct-20 21:08 36.488649 -121.817611 284 6073ft 178kts
20-Oct-20 21:09 36.500418 -121.875364 284 6006ft 166kts
20-Oct-20 21:10 36.512508 -121.934670 284 5731ft 188kts
20-Oct-20 21:11 36.525236 -121.997058 284 4727ft 183kts
20-Oct-20 21:12 36.537492 -122.057092 284 4004ft 175kts
20-Oct-20 21:13 36.550512 -122.120831 284 3282ft 173kts
20-Oct-20 21:14 36.562371 -122.178843 284 2361ft 167kts
20-Oct-20 21:15 36.583000 -122.223431 2 2002ft 156kts
20-Oct-20 21:16 36.624521 -122.202602 23 2001ft 169kts
20-Oct-20 21:17 36.666586 -122.175845 60 1999ft 170kts
20-Oct-20 21:18 36.666583 -122.118998 93 1999ft 162kts
20-Oct-20 21:19 36.659911 -122.064778 105 1999ft 156kts
20-Oct-20 21:20 36.644649 -122.015023 114 1947ft 154kts
20-Oct-20 21:21 36.629678 -121.970851 111 1809ft 125kts
20-Oct-20 21:22 36.616947 -121.932941 111 1555ft 113kts
20-Oct-20 21:23 36.604836 -121.897368 113 1042ft 112kts
20-Oct-20 21:24 36.593394 -121.863215 113 410ft 95kts
20-Oct-20 21:25 36.585406 -121.841149 216 258ft 11kts
20-Oct-20 21:26 36.585349 -121.842397 293 258ft 12kts
20-Oct-20 21:27 36.586699 -121.846105 306 258ft 9kts
20-Oct-20 21:28 36.588130 -121.850231 292 258ft 15kts
20-Oct-20 21:29 36.588777 -121.853951 178 258ft 0kts
20-Oct-20 21:30 36.588777 -121.853951 178 258ft 0kts

Navigation Log

Ident Type
Flight plan parsing failed, navigation log unavailable